createdAt,value
2019-01-19T00:01:30.982Z,33.83
2019-01-19T00:04:46.698Z,32.97
2019-01-19T00:07:53.488Z,35.80
2019-01-19T00:11:06.061Z,46.03
2019-01-19T00:14:12.843Z,41.77
2019-01-19T00:17:54.597Z,41.13
2019-01-19T00:21:01.372Z,42.67
2019-01-19T00:24:10.833Z,34.67
2019-01-19T00:27:32.503Z,40.57
2019-01-19T00:30:45.486Z,43.53
2019-01-19T00:33:54.957Z,40.60
2019-01-19T00:37:04.535Z,39.47
2019-01-19T00:40:23.162Z,36.63
2019-01-19T00:43:26.975Z,44.33
2019-01-19T00:46:33.760Z,33.47
2019-01-19T00:49:39.008Z,39.27
2019-01-19T00:52:45.772Z,32.90
2019-01-19T00:55:55.163Z,33.20
2019-01-19T00:59:11.064Z,31.90
2019-01-19T01:02:35.947Z,35.33
2019-01-19T01:05:42.713Z,30.57
2019-01-19T01:09:04.602Z,35.87
2019-01-19T01:12:27.837Z,33.17
2019-01-19T01:15:49.512Z,31.70
2019-01-19T01:19:02.066Z,27.20
2019-01-19T01:22:25.398Z,26.97
2019-01-19T01:25:38.050Z,26.73
2019-01-19T01:28:56.960Z,23.53
2019-01-19T01:32:03.705Z,25.40
2019-01-19T01:35:32.594Z,26.37
2019-01-19T01:38:50.727Z,27.10
2019-01-19T01:42:09.072Z,24.93
2019-01-19T01:45:27.808Z,21.40
2019-01-19T01:48:43.574Z,25.03
2019-01-19T01:52:20.863Z,23.80
2019-01-19T01:55:27.716Z,23.63
2019-01-19T01:58:46.532Z,15.80
2019-01-19T02:02:17.189Z,21.83
2019-01-19T02:05:29.958Z,20.43
2019-01-19T02:09:12.643Z,23.40
2019-01-19T02:12:34.460Z,24.80
2019-01-19T02:16:00.699Z,26.50
2019-01-19T02:19:22.551Z,25.67
2019-01-19T02:22:45.844Z,22.63
2019-01-19T02:26:01.494Z,25.87
2019-01-19T02:29:14.363Z,31.40
2019-01-19T02:32:29.863Z,26.00
2019-01-19T02:35:48.564Z,20.47
2019-01-19T02:38:59.535Z,29.73
2019-01-19T02:42:21.535Z,25.40
2019-01-19T02:45:52.307Z,23.70
2019-01-19T02:49:24.835Z,29.67
2019-01-19T02:52:52.534Z,26.13
2019-01-19T02:56:20.412Z,23.60
2019-01-19T02:59:32.944Z,20.57
2019-01-19T03:02:57.032Z,21.63
2019-01-19T03:06:06.413Z,24.43
2019-01-19T03:09:18.857Z,17.63
2019-01-19T03:12:48.968Z,24.80
2019-01-19T03:16:18.195Z,21.50
2019-01-19T03:19:37.188Z,19.40
2019-01-19T03:23:03.197Z,16.67
2019-01-19T03:26:28.113Z,22.77
2019-01-19T03:29:37.882Z,20.67
2019-01-19T03:32:47.434Z,17.30
2019-01-19T03:36:04.577Z,23.93
2019-01-19T03:39:43.381Z,14.83
2019-01-19T03:43:08.369Z,22.97
2019-01-19T03:46:36.275Z,15.97
2019-01-19T03:49:45.953Z,17.43
2019-01-19T03:52:58.563Z,19.97
2019-01-19T03:56:14.375Z,15.93
2019-01-19T03:59:29.748Z,15.97
2019-01-19T04:02:48.656Z,19.23
2019-01-19T04:06:04.185Z,23.57
2019-01-19T04:09:23.036Z,18.33
2019-01-19T04:12:51.139Z,19.53
2019-01-19T04:16:06.977Z,21.33
2019-01-19T04:19:22.483Z,20.77
2019-01-19T04:22:29.296Z,20.67
2019-01-19T04:25:36.103Z,14.40
2019-01-19T04:28:40.112Z,18.97
2019-01-19T04:31:43.784Z,16.90
2019-01-19T04:34:47.468Z,18.20
2019-01-19T04:37:51.137Z,19.50
2019-01-19T04:40:54.832Z,15.47
2019-01-19T04:43:58.504Z,17.43
2019-01-19T04:47:02.184Z,16.30
2019-01-19T04:50:08.644Z,21.27
2019-01-19T04:53:12.346Z,17.30
2019-01-19T04:56:16.004Z,27.27
2019-01-19T04:59:19.743Z,19.00
2019-01-19T05:02:23.415Z,22.73
2019-01-19T05:05:27.152Z,39.23
2019-01-19T05:08:30.814Z,43.30
2019-01-19T05:11:34.492Z,33.13
2019-01-19T05:14:38.183Z,34.00
2019-01-19T05:17:41.975Z,45.97
2019-01-19T05:20:45.613Z,34.67
2019-01-19T05:23:49.782Z,44.17
2019-01-19T05:26:53.503Z,31.33
2019-01-19T05:29:57.152Z,23.87
2019-01-19T05:33:00.874Z,24.07
2019-01-19T05:36:04.503Z,29.13
2019-01-19T05:39:08.232Z,36.50
2019-01-19T05:42:11.913Z,37.97
2019-01-19T05:45:15.604Z,31.27
2019-01-19T05:48:19.275Z,30.47
2019-01-19T05:51:22.994Z,28.87
2019-01-19T05:54:26.725Z,29.97
2019-01-19T05:57:30.393Z,38.47
2019-01-19T06:00:34.046Z,63.40
2019-01-19T06:03:37.717Z,63.00
2019-01-19T06:06:46.686Z,56.10
2019-01-19T06:09:46.729Z,56.43
2019-01-19T06:12:50.382Z,55.40
2019-01-19T06:15:54.129Z,37.03
2019-01-19T06:18:58.442Z,25.63
2019-01-19T06:22:02.237Z,23.07
2019-01-19T06:25:08.994Z,25.73
2019-01-19T06:28:12.699Z,15.70
2019-01-19T06:31:16.704Z,24.33
2019-01-19T06:34:20.381Z,24.17
2019-01-19T06:37:24.064Z,30.13
2019-01-19T06:40:27.863Z,28.20
2019-01-19T06:43:31.637Z,21.67
2019-01-19T06:46:35.323Z,24.53
2019-01-19T06:49:39.032Z,21.90
2019-01-19T06:52:42.673Z,21.90
2019-01-19T06:55:46.372Z,24.37
2019-01-19T06:58:50.006Z,23.93
2019-01-19T07:01:53.713Z,24.27
2019-01-19T07:04:57.375Z,27.33
2019-01-19T07:08:01.052Z,23.13
2019-01-19T07:11:04.732Z,27.47
2019-01-19T07:14:08.412Z,31.37
2019-01-19T07:17:12.128Z,35.47
2019-01-19T07:20:21.696Z,32.77
2019-01-19T07:23:25.433Z,29.27
2019-01-19T07:26:29.123Z,31.70
2019-01-19T07:29:32.812Z,35.17
2019-01-19T07:32:36.472Z,35.87
2019-01-19T07:35:40.168Z,31.60
2019-01-19T07:38:43.845Z,31.73
2019-01-19T07:41:47.518Z,29.40
2019-01-19T07:44:51.225Z,34.03
2019-01-19T07:47:54.875Z,37.33
2019-01-19T07:50:58.552Z,36.03
2019-01-19T07:54:02.216Z,29.90
2019-01-19T07:57:05.932Z,26.90
2019-01-19T08:00:15.481Z,29.33
2019-01-19T08:03:19.187Z,34.37
2019-01-19T08:06:22.847Z,37.90
2019-01-19T08:09:26.532Z,34.10
2019-01-19T08:12:30.272Z,28.93
2019-01-19T08:15:33.937Z,32.00
2019-01-19T08:18:38.204Z,29.87
2019-01-19T08:21:41.864Z,31.03
2019-01-19T08:24:45.588Z,34.30
2019-01-19T08:27:49.242Z,36.63
2019-01-19T08:30:52.952Z,34.27
2019-01-19T08:33:56.606Z,39.83
2019-01-19T08:37:00.347Z,34.80
2019-01-19T08:40:06.019Z,36.77
2019-01-19T08:43:13.971Z,37.40
2019-01-19T08:46:17.613Z,31.43
2019-01-19T08:49:21.342Z,25.13
2019-01-19T08:52:25.002Z,26.87
2019-01-19T08:55:29.421Z,29.93
2019-01-19T08:58:33.118Z,26.33
2019-01-19T09:01:36.842Z,26.77
2019-01-19T09:04:40.495Z,30.03
2019-01-19T09:07:44.138Z,30.70
2019-01-19T09:10:47.792Z,26.57
2019-01-19T09:13:51.487Z,27.93
2019-01-19T09:16:55.148Z,25.83
2019-01-19T09:19:58.869Z,28.47
2019-01-19T09:23:04.103Z,26.37
2019-01-19T09:26:07.813Z,29.00
2019-01-19T09:29:11.802Z,26.97
2019-01-19T09:32:15.596Z,29.50
2019-01-19T09:35:19.292Z,28.10
2019-01-19T09:38:22.983Z,31.07
2019-01-19T09:41:26.652Z,28.10
2019-01-19T09:44:30.348Z,29.67
2019-01-19T09:47:34.023Z,23.43
2019-01-19T09:50:39.077Z,28.77
2019-01-19T09:53:42.995Z,27.77
2019-01-19T09:56:46.715Z,24.73
2019-01-19T09:59:50.383Z,26.40
2019-01-19T10:02:54.070Z,28.97
2019-01-19T10:05:57.732Z,35.30
2019-01-19T10:09:01.448Z,40.40
2019-01-19T10:12:05.094Z,34.73
2019-01-19T10:15:11.963Z,41.53
2019-01-19T10:18:15.712Z,39.93
2019-01-19T10:21:19.522Z,41.43
2019-01-19T10:24:23.178Z,39.50
2019-01-19T10:27:26.883Z,41.97
2019-01-19T10:30:31.056Z,39.83
2019-01-19T10:33:34.764Z,45.10
2019-01-19T10:36:38.417Z,33.73
2019-01-19T10:39:42.094Z,35.03
2019-01-19T10:42:45.856Z,26.93
2019-01-19T10:45:49.552Z,35.77
2019-01-19T10:48:53.239Z,34.83
2019-01-19T10:51:59.467Z,17.93
2019-01-19T10:55:02.246Z,16.40
2019-01-19T10:58:05.943Z,14.60
2019-01-19T11:01:09.585Z,19.43
2019-01-19T11:04:13.280Z,18.20
2019-01-19T11:07:16.942Z,19.93
2019-01-19T11:10:22.665Z,23.60
2019-01-19T11:13:26.312Z,25.00
2019-01-19T11:16:30.038Z,23.07
2019-01-19T11:19:33.704Z,22.37
2019-01-19T11:22:37.381Z,28.27
2019-01-19T11:25:41.049Z,23.63
2019-01-19T11:28:45.040Z,23.87
2019-01-19T11:31:48.612Z,22.53
2019-01-19T11:34:52.319Z,26.57
2019-01-19T11:37:55.958Z,23.57
2019-01-19T11:40:59.635Z,23.37
2019-01-19T11:44:03.292Z,27.73
2019-01-19T11:47:07.007Z,28.43
2019-01-19T11:50:11.583Z,23.17
2019-01-19T11:53:15.283Z,24.10
2019-01-19T11:56:18.924Z,28.70
2019-01-19T11:59:22.620Z,30.53
2019-01-19T12:02:26.264Z,27.80
2019-01-19T12:05:29.979Z,28.30
2019-01-19T12:08:33.649Z,23.13
2019-01-19T12:11:37.343Z,30.93
2019-01-19T12:14:41.033Z,29.60
2019-01-19T12:17:44.752Z,30.50
2019-01-19T12:20:48.414Z,27.60
2019-01-19T12:23:52.094Z,26.80
2019-01-19T12:26:55.734Z,25.10
2019-01-19T12:29:59.436Z,23.30
2019-01-19T12:33:03.123Z,24.37
2019-01-19T12:36:06.882Z,28.50
2019-01-19T12:39:10.515Z,23.87
2019-01-19T12:42:14.621Z,27.43
2019-01-19T12:45:21.698Z,21.33
2019-01-19T12:48:25.401Z,24.00
2019-01-19T12:51:29.063Z,21.63
2019-01-19T12:54:32.766Z,27.37
2019-01-19T12:57:36.424Z,25.87
2019-01-19T13:00:40.124Z,23.87
2019-01-19T13:03:43.807Z,24.97
2019-01-19T13:06:48.097Z,31.70
2019-01-19T13:09:51.763Z,26.90
2019-01-19T13:12:56.445Z,30.17
2019-01-19T13:16:33.695Z,45.77
2019-01-19T13:19:46.343Z,26.13
2019-01-19T13:23:01.681Z,27.20
2019-01-19T13:26:08.543Z,24.97
2019-01-19T13:29:34.815Z,32.47
2019-01-19T13:33:02.157Z,24.77
2019-01-19T13:36:14.535Z,26.90
2019-01-19T13:39:23.928Z,26.47
2019-01-19T13:42:46.923Z,25.13
2019-01-19T13:46:19.546Z,51.23
2019-01-19T13:49:43.912Z,20.63
2019-01-19T13:53:02.611Z,26.30
2019-01-19T13:56:25.937Z,38.57
2019-01-19T13:59:35.616Z,25.87
2019-01-19T14:02:54.412Z,33.87
2019-01-19T14:06:04.272Z,22.67
2019-01-19T14:09:13.922Z,23.27
2019-01-19T14:12:20.755Z,22.93
2019-01-19T14:15:33.192Z,24.83
2019-01-19T14:18:40.043Z,23.13
2019-01-19T14:21:49.709Z,29.70
2019-01-19T14:25:08.336Z,26.33
2019-01-19T14:28:37.337Z,52.30
2019-01-19T14:32:02.332Z,137.53
2019-01-19T14:35:28.229Z,45.70
2019-01-19T14:38:56.759Z,70.30
2019-01-19T14:42:04.563Z,40.83
2019-01-19T14:45:26.554Z,35.40
2019-01-19T14:48:33.342Z,54.60
2019-01-19T14:51:55.308Z,41.10
2019-01-19T14:55:18.731Z,39.43
2019-01-19T14:58:42.277Z,27.93
2019-01-19T15:02:10.194Z,33.90
2019-01-19T15:05:26.143Z,38.60
2019-01-19T15:08:38.892Z,46.87
2019-01-19T15:11:51.324Z,57.63
2019-01-19T15:15:16.195Z,47.10
2019-01-19T15:18:38.241Z,49.77
2019-01-19T15:22:11.303Z,64.53
2019-01-19T15:25:20.645Z,72.67
2019-01-19T15:28:39.276Z,66.17
2019-01-19T15:31:55.052Z,72.10
2019-01-19T15:35:21.283Z,125.80
2019-01-19T15:38:50.906Z,151.17
2019-01-19T15:42:31.092Z,203.63
2019-01-19T15:46:01.823Z,123.77
2019-01-19T15:49:25.153Z,96.83
2019-01-19T15:52:38.230Z,84.50
2019-01-19T15:55:54.072Z,87.53
2019-01-19T15:59:15.831Z,95.30
2019-01-19T16:02:39.573Z,114.07
2019-01-19T16:06:20.168Z,106.93
2019-01-19T16:09:54.545Z,114.17
2019-01-19T16:13:07.062Z,118.60
2019-01-19T16:16:33.503Z,105.10
2019-01-19T16:19:53.344Z,118.97
2019-01-19T16:23:00.485Z,115.43
2019-01-19T16:26:07.325Z,111.67
2019-01-19T16:29:23.056Z,107.93
2019-01-19T16:32:35.441Z,124.73
2019-01-19T16:35:44.784Z,140.77
2019-01-19T16:38:51.645Z,141.90
2019-01-19T16:42:07.192Z,146.90
2019-01-19T16:45:26.075Z,141.87
2019-01-19T16:48:42.415Z,159.70
2019-01-19T16:51:51.867Z,196.27
2019-01-19T16:55:07.700Z,164.43
2019-01-19T16:58:29.512Z,241.67
2019-01-19T17:01:57.227Z,206.70
2019-01-19T17:05:20.382Z,237.13
2019-01-19T17:08:32.718Z,565.50
2019-01-19T17:11:45.323Z,179.23
2019-01-19T17:15:01.043Z,216.50
2019-01-19T17:18:16.132Z,355.87
2019-01-19T17:21:40.960Z,462.53
2019-01-19T17:24:59.813Z,512.90
2019-01-19T17:28:06.593Z,432.97
2019-01-19T17:31:25.460Z,297.90
2019-01-19T17:34:59.412Z,256.17
2019-01-19T17:38:12.035Z,255.40
2019-01-19T17:41:42.923Z,275.87
2019-01-19T17:45:11.022Z,282.43
2019-01-19T17:48:20.651Z,229.67
2019-01-19T17:51:50.106Z,217.93
2019-01-19T17:55:08.915Z,196.50
2019-01-19T17:58:24.520Z,195.07
2019-01-19T18:01:46.235Z,204.43
2019-01-19T18:05:04.685Z,162.27
2019-01-19T18:08:14.562Z,237.13
2019-01-19T18:11:37.244Z,194.80
2019-01-19T18:15:08.357Z,159.97
2019-01-19T18:18:20.934Z,171.87
2019-01-19T18:21:42.663Z,184.00
2019-01-19T18:25:10.545Z,176.27
2019-01-19T18:28:32.483Z,168.27
2019-01-19T18:32:00.488Z,172.67
2019-01-19T18:35:23.728Z,170.33
2019-01-19T18:38:45.555Z,145.10
2019-01-19T18:41:57.889Z,163.20
2019-01-19T18:45:04.733Z,155.13
2019-01-19T18:48:28.043Z,172.10
2019-01-19T18:51:52.973Z,170.10
2019-01-19T18:55:17.733Z,168.60
2019-01-19T18:58:30.691Z,220.23
2019-01-19T19:02:10.954Z,278.27
2019-01-19T19:05:52.265Z,212.67
2019-01-19T19:09:13.754Z,180.40
2019-01-19T19:12:29.164Z,195.13
2019-01-19T19:15:41.957Z,188.23
2019-01-19T19:19:08.185Z,190.90
2019-01-19T19:22:31.315Z,214.50
2019-01-19T19:25:57.704Z,196.20
2019-01-19T19:29:13.543Z,258.50
2019-01-19T19:32:42.974Z,264.30
2019-01-19T19:35:52.683Z,242.47
2019-01-19T19:39:17.415Z,233.93
2019-01-19T19:42:27.153Z,205.87
2019-01-19T19:45:36.624Z,211.00
2019-01-19T19:49:01.320Z,198.63
2019-01-19T19:52:05.522Z,204.70
2019-01-19T19:55:08.168Z,195.27
2019-01-19T19:58:11.876Z,197.20
2019-01-19T20:01:15.556Z,189.30
2019-01-19T20:04:19.251Z,224.50
2019-01-19T20:07:22.929Z,195.70
2019-01-19T20:10:26.635Z,198.27
2019-01-19T20:13:31.708Z,209.13
2019-01-19T20:16:35.598Z,185.30
2019-01-19T20:19:39.289Z,193.93
2019-01-19T20:22:43.001Z,220.43
2019-01-19T20:25:46.674Z,216.63
2019-01-19T20:28:50.408Z,215.83
2019-01-19T20:31:54.074Z,226.93
2019-01-19T20:34:57.844Z,242.07
2019-01-19T20:38:01.522Z,265.40
2019-01-19T20:41:05.273Z,240.13
2019-01-19T20:44:08.936Z,246.87
2019-01-19T20:47:12.657Z,259.47
2019-01-19T20:50:16.313Z,274.63
2019-01-19T20:53:20.029Z,261.47
2019-01-19T20:56:23.684Z,257.07
2019-01-19T20:59:27.403Z,263.10
2019-01-19T21:02:31.064Z,270.37
2019-01-19T21:05:34.763Z,304.57
2019-01-19T21:08:38.424Z,283.23
2019-01-19T21:12:01.493Z,303.83
2019-01-19T21:15:08.268Z,267.60
2019-01-19T21:18:13.049Z,283.27
2019-01-19T21:21:16.718Z,281.30
2019-01-19T21:24:20.434Z,289.43
2019-01-19T21:27:24.104Z,293.00
2019-01-19T21:30:27.808Z,310.40
2019-01-19T21:33:31.477Z,293.43
2019-01-19T21:36:35.187Z,292.97
2019-01-19T21:39:38.843Z,293.93
2019-01-19T21:42:42.564Z,304.53
2019-01-19T21:45:46.243Z,367.63
2019-01-19T21:48:49.954Z,400.20
2019-01-19T21:51:53.630Z,375.40
2019-01-19T21:54:57.345Z,404.37
2019-01-19T21:58:01.001Z,391.00
2019-01-19T22:01:04.727Z,350.33
2019-01-19T22:04:08.432Z,347.20
2019-01-19T22:07:12.122Z,305.77
2019-01-19T22:10:23.363Z,333.43
2019-01-19T22:13:27.113Z,278.47
2019-01-19T22:16:30.746Z,331.63
2019-01-19T22:19:34.464Z,307.13
2019-01-19T22:22:38.117Z,291.20
2019-01-19T22:25:41.818Z,295.47
2019-01-19T22:28:45.498Z,344.60
2019-01-19T22:31:49.218Z,350.03
2019-01-19T22:34:52.888Z,316.60
2019-01-19T22:37:56.613Z,324.67
2019-01-19T22:41:00.283Z,353.77
2019-01-19T22:44:04.015Z,364.03
2019-01-19T22:47:07.702Z,361.60
2019-01-19T22:50:13.522Z,343.13
2019-01-19T22:53:17.195Z,338.03
2019-01-19T22:56:20.883Z,332.20
2019-01-19T22:59:24.563Z,399.20
2019-01-19T23:02:28.254Z,437.43
2019-01-19T23:05:31.940Z,394.87
2019-01-19T23:08:35.652Z,343.93
2019-01-19T23:11:39.424Z,394.30
2019-01-19T23:14:43.655Z,393.73
2019-01-19T23:17:47.308Z,379.03
2019-01-19T23:20:51.005Z,434.33
2019-01-19T23:23:54.668Z,408.43
2019-01-19T23:26:59.695Z,377.53
2019-01-19T23:30:04.985Z,431.47
2019-01-19T23:33:08.683Z,416.87
2019-01-19T23:36:12.353Z,383.60
2019-01-19T23:39:16.065Z,380.37
2019-01-19T23:42:19.712Z,379.50
2019-01-19T23:45:23.438Z,365.10
2019-01-19T23:48:27.103Z,391.87
2019-01-19T23:51:30.815Z,429.27
2019-01-19T23:54:34.492Z,389.23
2019-01-19T23:57:38.198Z,367.73
